createdAt,value
2022-08-12T00:03:10.920Z,2.57
2022-08-12T00:08:45.014Z,2.70
2022-08-12T00:14:08.320Z,2.70
2022-08-12T00:19:30.113Z,3.20
2022-08-12T00:30:43.945Z,2.60
2022-08-12T00:36:10.769Z,2.63
2022-08-12T00:41:54.140Z,2.90
2022-08-12T00:47:03.564Z,2.67
2022-08-12T00:52:15.788Z,2.90
2022-08-12T00:57:26.005Z,2.87
2022-08-12T01:02:48.149Z,3.27
2022-08-12T01:08:12.376Z,2.87
2022-08-12T01:13:36.310Z,2.90
2022-08-12T01:18:44.041Z,2.73
2022-08-12T01:24:31.096Z,2.70
2022-08-12T01:29:50.691Z,3.03
2022-08-12T01:35:03.371Z,2.70
2022-08-12T01:40:34.807Z,2.80
2022-08-12T01:45:49.117Z,3.27
2022-08-12T01:51:07.760Z,2.70
2022-08-12T01:56:14.987Z,2.83
2022-08-12T02:01:36.527Z,2.87
2022-08-12T02:07:20.049Z,2.97
2022-08-12T02:12:43.844Z,2.87
2022-08-12T02:18:06.150Z,2.90
2022-08-12T02:23:13.123Z,2.83
2022-08-12T02:28:17.448Z,2.70
2022-08-12T02:33:29.716Z,3.47
2022-08-12T02:38:37.168Z,2.80
2022-08-12T02:43:51.315Z,2.77
2022-08-12T02:49:03.852Z,3.27
2022-08-12T02:54:13.423Z,2.67
2022-08-12T02:59:28.200Z,2.87
2022-08-12T03:04:43.659Z,2.60
2022-08-12T03:10:04.649Z,2.90
2022-08-12T03:15:13.135Z,2.90
2022-08-12T03:20:31.745Z,2.93
2022-08-12T03:25:37.817Z,2.83
2022-08-12T03:30:45.061Z,3.27
2022-08-12T03:35:51.734Z,3.27
2022-08-12T03:41:25.135Z,2.90
2022-08-12T03:46:54.581Z,3.30
2022-08-12T03:52:19.340Z,3.17
2022-08-12T03:57:40.798Z,3.00
2022-08-12T04:03:01.049Z,3.23
2022-08-12T04:08:13.629Z,3.00
2022-08-12T04:13:24.390Z,3.10
2022-08-12T04:18:28.111Z,3.37
2022-08-12T04:23:34.595Z,3.20
2022-08-12T04:28:38.179Z,3.60
2022-08-12T04:33:42.664Z,3.37
2022-08-12T04:38:47.882Z,4.03
2022-08-12T04:44:01.225Z,3.80
2022-08-12T04:49:06.620Z,3.90
2022-08-12T04:54:11.632Z,4.03
2022-08-12T04:59:17.351Z,3.40
2022-08-12T05:04:22.265Z,3.70
2022-08-12T05:09:27.332Z,3.80
2022-08-12T05:14:51.700Z,4.13
2022-08-12T05:19:57.218Z,3.90
2022-08-12T05:25:02.918Z,3.97
2022-08-12T05:30:09.350Z,4.17
2022-08-12T05:35:13.666Z,4.53
2022-08-12T05:40:18.683Z,4.00
2022-08-12T05:45:22.191Z,4.33
2022-08-12T05:50:25.837Z,3.33
2022-08-12T05:55:32.000Z,3.50
2022-08-12T06:00:36.598Z,3.00
2022-08-12T06:05:43.123Z,3.37
2022-08-12T06:11:01.807Z,3.20
2022-08-12T06:16:06.582Z,3.50
2022-08-12T06:21:11.343Z,3.80
2022-08-12T06:26:19.353Z,3.93
2022-08-12T06:31:26.388Z,3.70
2022-08-12T06:36:33.386Z,3.63
2022-08-12T06:42:05.008Z,4.03
2022-08-12T06:47:19.775Z,3.70
2022-08-12T06:52:25.229Z,4.07
2022-08-12T06:58:06.255Z,3.60
2022-08-12T07:02:55.735Z,3.23
2022-08-12T07:08:12.490Z,3.50
2022-08-12T07:13:17.651Z,3.40
2022-08-12T07:18:21.189Z,3.10
2022-08-12T07:23:24.890Z,3.10
2022-08-12T07:28:33.888Z,3.47
2022-08-12T07:33:39.880Z,3.43
2022-08-12T07:38:46.985Z,3.20
2022-08-12T07:43:53.945Z,2.87
2022-08-12T07:48:59.403Z,3.27
2022-08-12T07:54:04.755Z,2.90
2022-08-12T07:59:10.317Z,3.00
2022-08-12T08:04:30.875Z,2.77
2022-08-12T08:09:34.462Z,2.93
2022-08-12T08:14:39.765Z,2.47
2022-08-12T08:20:03.606Z,2.67
2022-08-12T08:25:35.073Z,3.10
2022-08-12T08:30:33.887Z,2.77
2022-08-12T08:35:46.134Z,2.87
2022-08-12T08:41:07.136Z,2.50
2022-08-12T08:46:12.124Z,2.40
2022-08-12T08:51:15.817Z,2.67
2022-08-12T08:56:19.411Z,2.50
2022-08-12T09:01:24.751Z,2.50
2022-08-12T09:12:11.649Z,2.27
2022-08-12T09:17:42.170Z,2.60
2022-08-12T09:22:49.323Z,2.90
2022-08-12T09:28:03.477Z,2.57
2022-08-12T09:33:14.895Z,2.03
2022-08-12T09:38:28.369Z,1.97
2022-08-12T09:49:13.442Z,2.27
2022-08-12T09:54:48.309Z,2.20
2022-08-12T10:00:16.324Z,2.20
2022-08-12T10:05:21.952Z,2.10
2022-08-12T10:10:30.212Z,2.20
2022-08-12T10:16:02.206Z,2.07
2022-08-12T10:21:00.678Z,2.40
2022-08-12T10:26:37.121Z,2.40
2022-08-12T10:32:19.450Z,2.73
2022-08-12T10:38:07.385Z,2.23
2022-08-12T10:43:00.698Z,2.50
2022-08-12T10:48:21.979Z,2.60
2022-08-12T10:53:45.741Z,2.30
2022-08-12T10:58:52.332Z,2.50
2022-08-12T11:04:26.258Z,2.27
2022-08-12T11:09:41.476Z,2.30
2022-08-12T11:14:51.206Z,2.00
2022-08-12T11:19:55.301Z,2.00
2022-08-12T11:25:01.026Z,2.07
2022-08-12T11:30:31.193Z,1.73
2022-08-12T11:35:36.526Z,1.70
2022-08-12T11:40:42.554Z,1.70
2022-08-12T11:45:47.403Z,1.80
2022-08-12T11:50:51.319Z,2.00
2022-08-12T11:55:56.418Z,1.88
2022-08-12T12:06:24.719Z,1.90
2022-08-12T12:11:48.822Z,1.83
2022-08-12T12:16:53.184Z,1.80
2022-08-12T12:21:57.336Z,1.88
2022-08-12T12:27:03.947Z,1.75
2022-08-12T12:32:12.150Z,1.90
2022-08-12T12:37:26.969Z,1.65
2022-08-12T12:42:45.603Z,1.80
2022-08-12T12:48:00.699Z,2.28
2022-08-12T12:53:04.367Z,1.77
2022-08-12T12:58:12.197Z,1.77
2022-08-12T13:03:19.726Z,2.17
2022-08-12T13:08:27.858Z,2.00
2022-08-12T13:14:07.332Z,1.77
2022-08-12T13:18:58.951Z,1.80
2022-08-12T13:24:09.682Z,1.70
2022-08-12T13:29:15.308Z,1.70
2022-08-12T13:34:32.211Z,1.73
2022-08-12T13:39:38.786Z,1.63
2022-08-12T13:44:44.020Z,1.67
2022-08-12T13:49:54.816Z,2.03
2022-08-12T13:54:59.736Z,1.70
2022-08-12T14:00:05.618Z,1.80
2022-08-12T14:05:31.488Z,2.00
2022-08-12T14:10:39.262Z,2.20
2022-08-12T14:15:57.878Z,4.10
2022-08-12T14:21:04.417Z,3.13
2022-08-12T14:26:11.832Z,1.57
2022-08-12T14:31:18.783Z,1.80
2022-08-12T14:36:26.971Z,1.43
2022-08-12T14:41:36.463Z,1.70
2022-08-12T14:46:55.947Z,2.27
2022-08-12T14:53:13.505Z,1.80
2022-08-12T14:57:24.237Z,1.77
2022-08-12T15:02:39.615Z,1.90
2022-08-12T15:07:51.174Z,1.60
2022-08-12T15:12:55.795Z,1.77
2022-08-12T15:18:02.552Z,2.00
2022-08-12T15:23:17.334Z,1.80
2022-08-12T15:28:23.422Z,1.53
2022-08-12T15:33:44.822Z,1.40
2022-08-12T15:38:50.633Z,1.20
2022-08-12T15:44:36.597Z,1.20
2022-08-12T15:49:22.767Z,1.40
2022-08-12T15:54:33.498Z,1.50
2022-08-12T16:00:02.301Z,1.40
2022-08-12T16:06:10.152Z,1.27
2022-08-12T16:10:30.748Z,1.50
2022-08-12T16:15:38.094Z,1.30
2022-08-12T16:20:47.618Z,1.50
2022-08-12T16:26:05.713Z,1.77
2022-08-12T16:31:22.485Z,1.30
2022-08-12T16:36:28.679Z,1.20
2022-08-12T16:41:37.855Z,1.40
2022-08-12T16:46:57.427Z,1.30
2022-08-12T16:52:03.117Z,1.83
2022-08-12T16:57:09.720Z,1.70
2022-08-12T17:03:12.831Z,1.70
2022-08-12T17:08:55.793Z,1.80
2022-08-12T17:14:02.418Z,1.70
2022-08-12T17:19:09.561Z,1.70
2022-08-12T17:24:16.738Z,1.80
2022-08-12T17:29:31.940Z,1.70
2022-08-12T17:35:19.162Z,1.40
2022-08-12T17:40:34.542Z,1.83
2022-08-12T17:45:42.527Z,1.40
2022-08-12T17:50:52.019Z,2.13
2022-08-12T17:55:58.120Z,1.60
2022-08-12T18:01:02.878Z,1.70
2022-08-12T18:06:13.586Z,2.07
2022-08-12T18:12:03.980Z,1.60
2022-08-12T18:17:02.408Z,1.67
2022-08-12T18:22:08.098Z,1.70
2022-08-12T18:27:29.712Z,1.60
2022-08-12T18:32:58.242Z,1.57
2022-08-12T18:38:03.452Z,1.50
2022-08-12T18:43:15.179Z,1.53
2022-08-12T18:48:21.362Z,1.50
2022-08-12T18:54:05.750Z,1.70
2022-08-12T18:58:59.922Z,1.70
2022-08-12T19:04:06.710Z,1.60
2022-08-12T19:09:15.015Z,1.63
2022-08-12T19:14:28.467Z,1.60
2022-08-12T19:19:41.250Z,1.43
2022-08-12T19:25:02.901Z,1.73
2022-08-12T19:30:12.731Z,2.00
2022-08-12T19:40:42.958Z,1.53
2022-08-12T19:45:53.786Z,1.50
2022-08-12T19:50:57.889Z,1.60
2022-08-12T19:56:03.056Z,1.53
2022-08-12T20:01:12.130Z,1.87
2022-08-12T20:06:21.604Z,2.10
2022-08-12T20:12:14.635Z,2.20
2022-08-12T20:16:57.675Z,2.03
2022-08-12T20:22:08.778Z,1.90
2022-08-12T20:27:29.862Z,1.90
2022-08-12T20:32:54.246Z,2.10
2022-08-12T20:38:06.389Z,1.70
2022-08-12T20:43:24.195Z,1.63
2022-08-12T20:48:34.268Z,1.90
2022-08-12T20:53:57.545Z,2.20
2022-08-12T20:59:04.974Z,2.00
2022-08-12T21:04:28.738Z,2.37
2022-08-12T21:09:33.791Z,1.73
2022-08-12T21:14:53.430Z,1.80
2022-08-12T21:20:04.790Z,2.00
2022-08-12T21:25:16.930Z,2.10
2022-08-12T21:30:20.849Z,2.20
2022-08-12T21:35:35.775Z,1.70
2022-08-12T21:40:51.974Z,2.20
2022-08-12T21:46:01.563Z,2.10
2022-08-12T21:51:23.481Z,2.07
2022-08-12T21:56:34.859Z,2.20
2022-08-12T22:01:48.799Z,2.00
2022-08-12T22:06:54.775Z,1.90
2022-08-12T22:12:20.385Z,2.30
2022-08-12T22:17:49.543Z,2.13
2022-08-12T22:22:56.652Z,2.10
2022-08-12T22:28:17.889Z,2.10
2022-08-12T22:33:28.386Z,1.87
2022-08-12T22:38:33.823Z,2.07
2022-08-12T22:44:00.370Z,1.97
2022-08-12T22:49:08.896Z,2.13
2022-08-12T22:54:35.524Z,2.00
2022-08-12T22:59:55.622Z,1.80
2022-08-12T23:05:00.843Z,1.60
2022-08-12T23:10:06.614Z,2.20
2022-08-12T23:15:13.731Z,2.20
2022-08-12T23:20:18.568Z,2.20
2022-08-12T23:25:47.869Z,2.10
2022-08-12T23:31:04.614Z,2.20
2022-08-12T23:36:12.598Z,2.03
2022-08-12T23:41:20.307Z,2.10
2022-08-12T23:46:26.081Z,1.97
2022-08-12T23:51:32.418Z,2.37
2022-08-12T23:56:43.647Z,2.37
